LKMT

Ostrava Leos Janáček Airport

Ostrava, Czech Republic
METAR LKMT 151900Z 05007KT 9999 FEW048 06/01 Q1031 NOSIG
Observed Flight Rules
Nov-15 @ 19:00 UTC (11 minutes ago) Visual Flight Rules
Wind Visibility Clouds
50° at 7 knots 10,000+ meters
  • Few at 4,800' AGL
Temperatures Readings
Current 6°C / 43°F
Dewpoint 1°C / 34°F
Humidity 71%
Altimeter 30.44" Hg
Pressure 1031 hPa
Elevation 256
METAR LKMT 151900Z 05007KT 9999 FEW048 06/01 Q1031 NOSIG
Observed Flight Rules
Nov-15 @ 19:00 UTC
(11 minutes ago)
VFR
Wind Visibility
50° at 7 knots 10,000+ meters
Clouds
  • Few at 4,800' AGL
Temperature Dewpoint
6°C / 43°F 1°C / 34°F
Humidity Altimeter Pressure
71% 30.44" Hg 1031 hPa